createdAt,value
2023-11-04T00:00:22.308Z,93.01
2023-11-04T00:01:24.865Z,93.10
2023-11-04T00:02:22.249Z,93.35
2023-11-04T00:03:22.389Z,93.60
2023-11-04T00:04:22.356Z,93.84
2023-11-04T00:05:22.277Z,94.16
2023-11-04T00:06:22.369Z,94.44
2023-11-04T00:07:22.207Z,94.74
2023-11-04T00:08:22.217Z,95.06
2023-11-04T00:09:28.530Z,95.31
2023-11-04T00:10:22.210Z,95.50
2023-11-04T00:11:22.162Z,95.61
2023-11-04T00:12:22.213Z,95.65
2023-11-04T00:13:22.166Z,95.66
2023-11-04T00:14:22.138Z,95.69
2023-11-04T00:15:24.963Z,95.55
2023-11-04T00:16:22.128Z,95.44
2023-11-04T00:17:22.133Z,95.23
2023-11-04T00:18:22.185Z,95.16
2023-11-04T00:19:22.187Z,95.17
2023-11-04T00:20:22.111Z,95.16
2023-11-04T00:21:22.098Z,95.19
2023-11-04T00:22:22.101Z,94.91
2023-11-04T00:23:22.056Z,94.83
2023-11-04T00:24:22.058Z,94.73
2023-11-04T00:25:22.038Z,94.88
2023-11-04T00:26:22.051Z,94.74
2023-11-04T00:27:22.350Z,94.71
2023-11-04T00:28:22.017Z,94.94
2023-11-04T00:29:21.985Z,94.79
2023-11-04T00:30:22.019Z,94.95
2023-11-04T00:31:21.970Z,94.95
2023-11-04T00:32:21.986Z,94.74
2023-11-04T00:33:22.046Z,94.76
2023-11-04T00:34:22.050Z,94.79
2023-11-04T00:35:21.928Z,94.79
2023-11-04T00:36:21.943Z,94.65
2023-11-04T00:37:23.162Z,94.30
2023-11-04T00:38:21.906Z,93.97
2023-11-04T00:39:21.912Z,93.93
2023-11-04T00:40:21.865Z,93.98
2023-11-04T00:41:21.865Z,94.09
2023-11-04T00:42:21.900Z,94.37
2023-11-04T00:43:21.842Z,94.42
2023-11-04T00:44:21.874Z,94.36
2023-11-04T00:45:21.826Z,93.75
2023-11-04T00:46:21.835Z,93.87
2023-11-04T00:47:21.830Z,93.60
2023-11-04T00:48:21.841Z,93.57
2023-11-04T00:49:21.835Z,93.04
2023-11-04T00:50:22.104Z,93.11
2023-11-04T00:51:21.763Z,93.13
2023-11-04T00:52:21.754Z,93.26
2023-11-04T00:53:21.738Z,93.29
2023-11-04T00:54:21.768Z,93.46
2023-11-04T00:55:21.753Z,93.36
2023-11-04T00:56:21.715Z,93.40
2023-11-04T00:57:21.718Z,93.45
2023-11-04T00:58:21.669Z,93.26
2023-11-04T00:59:21.661Z,92.80
2023-11-04T01:00:21.702Z,93.01
2023-11-04T01:01:21.677Z,92.74
2023-11-04T01:02:21.661Z,92.81
2023-11-04T01:03:21.679Z,92.52
2023-11-04T01:04:21.697Z,92.68
2023-11-04T01:05:21.743Z,92.83
2023-11-04T01:06:21.636Z,92.89
2023-11-04T01:07:21.641Z,92.93
2023-11-04T01:08:21.576Z,92.80
2023-11-04T01:09:21.582Z,92.77
2023-11-04T01:10:21.559Z,92.48
2023-11-04T01:11:21.566Z,92.24
2023-11-04T01:12:21.576Z,91.98
2023-11-04T01:13:21.575Z,91.68
2023-11-04T01:14:21.515Z,91.77
2023-11-04T01:15:21.538Z,91.75
2023-11-04T01:16:21.495Z,91.90
2023-11-04T01:17:21.525Z,91.95
2023-11-04T01:18:21.546Z,92.04
2023-11-04T01:19:21.562Z,92.10
2023-11-04T01:20:21.477Z,92.24
2023-11-04T01:21:21.481Z,92.37
2023-11-04T01:22:21.456Z,92.58
2023-11-04T01:23:21.454Z,92.81
2023-11-04T01:24:21.454Z,92.95
2023-11-04T01:25:21.422Z,93.51
2023-11-04T01:26:21.380Z,93.87
2023-11-04T01:27:21.410Z,93.96
2023-11-04T01:28:21.366Z,94.09
2023-11-04T01:29:21.370Z,94.19
2023-11-04T01:30:21.418Z,94.38
2023-11-04T01:31:21.355Z,94.50
2023-11-04T01:32:21.357Z,94.42
2023-11-04T01:33:21.484Z,94.41
2023-11-04T01:34:21.417Z,94.57
2023-11-04T01:35:21.320Z,94.68
2023-11-04T01:36:21.345Z,94.74
2023-11-04T01:37:21.298Z,94.78
2023-11-04T01:38:21.275Z,94.94
2023-11-04T01:39:21.302Z,95.28
2023-11-04T01:40:21.262Z,95.59
2023-11-04T01:41:21.232Z,95.88
2023-11-04T01:42:21.360Z,96.15
2023-11-04T01:43:21.223Z,96.17
2023-11-04T01:44:21.201Z,96.15
2023-11-04T01:45:21.232Z,96.11
2023-11-04T01:46:21.188Z,96.01
2023-11-04T01:47:21.176Z,96.16
2023-11-04T01:48:21.268Z,96.34
2023-11-04T01:49:21.239Z,96.49
2023-11-04T01:50:21.145Z,96.62
2023-11-04T01:51:21.161Z,96.67
2023-11-04T01:52:21.134Z,96.79
2023-11-04T01:53:21.164Z,97.00
2023-11-04T01:54:21.187Z,97.10
2023-11-04T01:55:21.181Z,97.24
2023-11-04T01:56:21.081Z,97.35
2023-11-04T01:57:21.134Z,97.60
2023-11-04T01:58:21.078Z,97.74
2023-11-04T01:59:21.091Z,97.77
2023-11-04T02:00:21.081Z,97.78
2023-11-04T02:01:21.030Z,97.80
2023-11-04T02:02:21.017Z,97.79
2023-11-04T02:03:21.061Z,97.80
2023-11-04T02:04:21.144Z,97.78
2023-11-04T02:05:20.998Z,97.74
2023-11-04T02:06:21.041Z,97.71
2023-11-04T02:07:20.974Z,97.90
2023-11-04T02:08:20.959Z,98.08
2023-11-04T02:09:20.971Z,98.20
2023-11-04T02:10:20.978Z,98.35
2023-11-04T02:11:20.931Z,98.56
2023-11-04T02:12:20.954Z,98.64
2023-11-04T02:13:20.906Z,98.74
2023-11-04T02:14:20.926Z,98.76
2023-11-04T02:15:20.942Z,98.79
2023-11-04T02:16:20.902Z,98.81
2023-11-04T02:17:20.882Z,98.51
2023-11-04T02:18:20.915Z,98.04
2023-11-04T02:19:20.944Z,97.77
2023-11-04T02:20:20.863Z,97.88
2023-11-04T02:21:20.869Z,98.00
2023-11-04T02:22:22.225Z,98.17
2023-11-04T02:23:20.876Z,98.37
2023-11-04T02:24:20.821Z,98.43
2023-11-04T02:25:20.797Z,98.42
2023-11-04T02:26:20.788Z,98.31
2023-11-04T02:27:20.781Z,98.16
2023-11-04T02:28:20.767Z,97.90
2023-11-04T02:29:20.746Z,97.71
2023-11-04T02:30:20.751Z,97.55
2023-11-04T02:31:20.730Z,97.51
2023-11-04T02:32:20.767Z,97.65
2023-11-04T02:33:20.760Z,97.70
2023-11-04T02:34:20.744Z,97.57
2023-11-04T02:35:20.693Z,97.44
2023-11-04T02:36:20.758Z,97.33
2023-11-04T02:37:20.712Z,97.35
2023-11-04T02:38:20.668Z,97.29
2023-11-04T02:39:20.760Z,97.24
2023-11-04T02:40:20.642Z,97.17
2023-11-04T02:41:20.695Z,97.22
2023-11-04T02:42:20.652Z,97.26
2023-11-04T02:43:20.626Z,97.14
2023-11-04T02:44:20.603Z,97.06
2023-11-04T02:45:20.609Z,97.05
2023-11-04T02:46:20.587Z,97.21
2023-11-04T02:47:20.583Z,97.19
2023-11-04T02:48:20.657Z,96.97
2023-11-04T02:49:20.576Z,97.09
2023-11-04T02:50:20.547Z,97.19
2023-11-04T02:51:20.605Z,97.29
2023-11-04T02:52:20.542Z,97.46
2023-11-04T02:53:20.510Z,97.60
2023-11-04T02:54:20.622Z,97.82
2023-11-04T02:55:20.487Z,97.90
2023-11-04T02:56:20.472Z,97.90
2023-11-04T02:57:20.495Z,97.87
2023-11-04T02:58:20.469Z,98.15
2023-11-04T02:59:20.462Z,98.47
2023-11-04T03:00:20.500Z,98.59
2023-11-04T03:01:20.646Z,98.69
2023-11-04T03:02:20.431Z,98.76
2023-11-04T03:03:20.531Z,98.80
2023-11-04T03:04:20.544Z,98.77
2023-11-04T03:05:27.822Z,98.78
2023-11-04T03:06:20.399Z,98.82
2023-11-04T03:07:20.387Z,98.85
2023-11-04T03:08:20.372Z,98.86
2023-11-04T03:09:20.441Z,98.93
2023-11-04T03:10:20.327Z,98.97
2023-11-04T03:11:20.321Z,99.01
2023-11-04T03:12:20.328Z,99.00
2023-11-04T03:13:20.349Z,98.98
2023-11-04T03:14:20.284Z,98.94
2023-11-04T03:15:20.293Z,98.92
2023-11-04T03:16:20.296Z,98.88
2023-11-04T03:17:20.290Z,98.88
2023-11-04T03:18:20.444Z,98.91
2023-11-04T03:19:20.304Z,99.03
2023-11-04T03:20:20.229Z,99.10
2023-11-04T03:21:20.232Z,99.20
2023-11-04T03:22:20.203Z,99.26
2023-11-04T03:23:20.207Z,99.19
2023-11-04T03:24:20.215Z,99.09
2023-11-04T03:25:20.220Z,98.99
2023-11-04T03:26:20.222Z,98.86
2023-11-04T03:27:20.173Z,98.69
2023-11-04T03:28:20.156Z,98.64
2023-11-04T03:29:20.123Z,98.62
2023-11-04T03:30:20.198Z,98.58
2023-11-04T03:31:20.109Z,98.62
2023-11-04T03:32:20.118Z,98.69
2023-11-04T03:33:20.159Z,98.80
2023-11-04T03:34:20.194Z,98.94
2023-11-04T03:35:20.079Z,99.14
2023-11-04T03:36:20.088Z,99.35
2023-11-04T03:37:20.051Z,99.47
2023-11-04T03:38:20.052Z,99.58
2023-11-04T03:39:20.060Z,99.59
2023-11-04T03:40:20.038Z,99.52
2023-11-04T03:41:20.046Z,99.43
2023-11-04T03:42:20.073Z,99.41
2023-11-04T03:43:19.999Z,99.47
2023-11-04T03:44:19.974Z,99.52
2023-11-04T03:45:20.000Z,99.56
2023-11-04T03:46:19.955Z,99.58
2023-11-04T03:47:20.091Z,99.62
2023-11-04T03:48:20.111Z,99.61
2023-11-04T03:49:20.065Z,99.54
2023-11-04T03:50:19.922Z,99.44
2023-11-04T03:51:19.969Z,99.40
2023-11-04T03:52:19.915Z,99.37
2023-11-04T03:53:19.881Z,99.21
2023-11-04T03:54:19.951Z,99.03
2023-11-04T03:55:19.860Z,98.91
2023-11-04T03:56:19.875Z,98.90
2023-11-04T03:57:19.883Z,98.93
2023-11-04T03:58:19.901Z,98.88
2023-11-04T03:59:19.823Z,98.77
2023-11-04T04:00:19.846Z,98.73
2023-11-04T04:01:19.803Z,98.69
2023-11-04T04:02:19.813Z,98.67
2023-11-04T04:03:19.885Z,98.67
2023-11-04T04:04:19.931Z,98.73
2023-11-04T04:05:19.784Z,98.82
2023-11-04T04:06:19.771Z,98.85
2023-11-04T04:07:19.766Z,98.78
2023-11-04T04:08:19.762Z,98.79
2023-11-04T04:09:19.725Z,98.84
2023-11-04T04:10:19.703Z,98.93
2023-11-04T04:11:19.742Z,99.06
2023-11-04T04:12:19.686Z,99.19
2023-11-04T04:13:19.698Z,99.28
2023-11-04T04:14:19.654Z,99.36
2023-11-04T04:15:19.654Z,99.45
2023-11-04T04:16:19.645Z,99.46
2023-11-04T04:17:19.620Z,99.41
2023-11-04T04:18:19.680Z,99.30
2023-11-04T04:19:19.702Z,99.19
2023-11-04T04:20:19.603Z,99.18
2023-11-04T04:21:19.576Z,99.19
2023-11-04T04:22:19.569Z,99.13
2023-11-04T04:23:19.580Z,99.06
2023-11-04T04:24:19.569Z,99.07
2023-11-04T04:25:19.599Z,99.11
2023-11-04T04:26:19.570Z,99.09
2023-11-04T04:27:19.521Z,98.94
2023-11-04T04:28:19.524Z,98.86
2023-11-04T04:29:19.502Z,98.74
2023-11-04T04:30:19.487Z,98.68
2023-11-04T04:31:19.501Z,98.41
2023-11-04T04:32:19.467Z,98.14
2023-11-04T04:33:19.566Z,98.09
2023-11-04T04:34:19.538Z,98.16
2023-11-04T04:35:19.438Z,98.27
2023-11-04T04:36:19.466Z,98.24
2023-11-04T04:37:19.452Z,98.15
2023-11-04T04:38:19.415Z,98.21
2023-11-04T04:39:19.401Z,98.41
2023-11-04T04:40:19.407Z,98.57
2023-11-04T04:41:19.594Z,98.67
2023-11-04T04:42:19.371Z,98.73
2023-11-04T04:43:19.390Z,98.78
2023-11-04T04:44:19.373Z,98.85
2023-11-04T04:45:19.346Z,98.87
2023-11-04T04:46:19.332Z,98.76
2023-11-04T04:47:19.322Z,98.66
2023-11-04T04:48:19.297Z,98.53
2023-11-04T04:49:19.397Z,98.30
2023-11-04T04:50:19.287Z,98.06
2023-11-04T04:51:19.267Z,98.06
2023-11-04T04:52:19.272Z,98.05
2023-11-04T04:53:19.256Z,97.87
2023-11-04T04:54:19.264Z,97.71
2023-11-04T04:55:19.279Z,97.49
2023-11-04T04:56:19.216Z,97.39
2023-11-04T04:57:19.226Z,97.36
2023-11-04T04:58:19.214Z,97.34
2023-11-04T04:59:19.194Z,97.33
2023-11-04T05:00:19.202Z,97.47
2023-11-04T05:01:19.205Z,97.45
2023-11-04T05:02:19.131Z,97.39
2023-11-04T05:03:19.279Z,97.04
2023-11-04T05:04:19.177Z,96.84
2023-11-04T05:05:19.290Z,96.70
2023-11-04T05:06:19.095Z,96.61
2023-11-04T05:07:19.144Z,96.60
2023-11-04T05:08:19.110Z,96.87
2023-11-04T05:09:19.071Z,97.19
2023-11-04T05:10:19.070Z,97.49
2023-11-04T05:11:19.061Z,97.65
2023-11-04T05:12:19.105Z,97.68
2023-11-04T05:13:19.048Z,97.65
2023-11-04T05:14:19.036Z,97.88
2023-11-04T05:15:19.053Z,98.16
2023-11-04T05:16:19.066Z,98.33
2023-11-04T05:17:19.058Z,98.49
2023-11-04T05:18:19.064Z,98.55
2023-11-04T05:19:19.080Z,98.47
2023-11-04T05:20:18.973Z,98.31
2023-11-04T05:21:18.988Z,98.15
2023-11-04T05:22:18.985Z,97.95
2023-11-04T05:23:18.968Z,97.78
2023-11-04T05:24:19.012Z,97.61
2023-11-04T05:25:18.932Z,97.69
2023-11-04T05:26:18.975Z,97.63
2023-11-04T05:27:18.959Z,97.45
2023-11-04T05:28:18.985Z,97.35
2023-11-04T05:29:18.950Z,97.28
2023-11-04T05:30:18.965Z,97.23
2023-11-04T05:31:18.883Z,97.10
2023-11-04T05:32:19.079Z,97.04
2023-11-04T05:33:19.134Z,97.27
2023-11-04T05:34:18.943Z,97.35
2023-11-04T05:35:18.958Z,97.34
2023-11-04T05:36:18.872Z,97.35
2023-11-04T05:37:18.869Z,97.44
2023-11-04T05:38:18.960Z,97.54
2023-11-04T05:39:18.888Z,97.62
2023-11-04T05:40:18.957Z,97.71
2023-11-04T05:41:18.773Z,97.79
2023-11-04T05:42:18.778Z,97.89
2023-11-04T05:43:18.743Z,98.00
2023-11-04T05:44:18.710Z,98.01
2023-11-04T05:45:18.717Z,98.11
2023-11-04T05:46:18.766Z,98.24
2023-11-04T05:47:18.690Z,98.39
2023-11-04T05:48:18.804Z,98.44
2023-11-04T05:49:18.746Z,98.34
2023-11-04T05:50:18.667Z,98.18
2023-11-04T05:51:18.652Z,97.95
2023-11-04T05:52:18.652Z,97.84
2023-11-04T05:53:18.616Z,97.79
2023-11-04T05:54:18.639Z,97.71
2023-11-04T05:55:18.619Z,97.54
2023-11-04T05:56:18.590Z,97.34
2023-11-04T05:57:18.610Z,97.18
2023-11-04T05:58:18.568Z,96.85
2023-11-04T05:59:18.566Z,96.48
2023-11-04T06:00:18.572Z,96.34
2023-11-04T06:01:18.527Z,96.44
2023-11-04T06:02:18.546Z,96.47
2023-11-04T06:03:18.529Z,96.47
2023-11-04T06:04:18.601Z,96.44
2023-11-04T06:05:18.542Z,96.59
2023-11-04T06:06:18.512Z,96.59
2023-11-04T06:07:18.568Z,96.65
2023-11-04T06:08:18.498Z,96.67
2023-11-04T06:09:18.439Z,96.51
2023-11-04T06:10:18.438Z,96.43
2023-11-04T06:11:21.053Z,96.27
2023-11-04T06:12:18.436Z,95.86
2023-11-04T06:13:18.409Z,94.78
2023-11-04T06:14:18.447Z,93.84
2023-11-04T06:15:18.433Z,93.20
2023-11-04T06:16:18.380Z,93.17
2023-11-04T06:17:18.377Z,93.12
2023-11-04T06:18:18.495Z,92.89
2023-11-04T06:19:18.465Z,92.56
2023-11-04T06:20:18.327Z,92.20
2023-11-04T06:21:18.344Z,93.13
2023-11-04T06:22:18.333Z,93.85
2023-11-04T06:23:18.302Z,93.84
2023-11-04T06:24:18.332Z,93.82
2023-11-04T06:25:18.280Z,93.99
2023-11-04T06:26:18.268Z,94.05
2023-11-04T06:27:18.281Z,93.81
2023-11-04T06:28:18.266Z,93.42
2023-11-04T06:29:18.393Z,92.61
2023-11-04T06:30:18.247Z,91.46
2023-11-04T06:31:18.279Z,90.64
2023-11-04T06:32:18.199Z,90.46
2023-11-04T06:33:18.225Z,90.61
2023-11-04T06:34:18.327Z,90.62
2023-11-04T06:35:18.315Z,90.15
2023-11-04T06:36:18.164Z,89.39
2023-11-04T06:37:18.188Z,88.86
2023-11-04T06:38:18.152Z,87.95
2023-11-04T06:39:18.170Z,86.73
2023-11-04T06:40:18.131Z,87.30
2023-11-04T06:41:18.303Z,88.05
2023-11-04T06:42:18.123Z,87.98
2023-11-04T06:43:18.124Z,87.86
2023-11-04T06:44:18.129Z,87.03
2023-11-04T06:45:18.097Z,86.51
2023-11-04T06:46:18.082Z,85.34
2023-11-04T06:47:18.070Z,84.82
2023-11-04T06:48:18.143Z,83.89
2023-11-04T06:49:18.067Z,83.51
2023-11-04T06:50:18.079Z,83.43
2023-11-04T06:51:18.044Z,83.11
2023-11-04T06:52:18.031Z,81.66
2023-11-04T06:53:18.021Z,80.99
2023-11-04T06:54:18.005Z,80.48
2023-11-04T06:55:18.033Z,80.21
2023-11-04T06:56:17.998Z,79.26
2023-11-04T06:57:17.952Z,78.59
2023-11-04T06:58:17.961Z,78.26
2023-11-04T06:59:17.968Z,78.06
2023-11-04T07:00:17.934Z,77.19
2023-11-04T07:01:17.987Z,76.30
2023-11-04T07:02:17.911Z,75.71
2023-11-04T07:03:18.007Z,75.27
2023-11-04T07:04:17.920Z,74.29
2023-11-04T07:05:17.914Z,74.90
2023-11-04T07:06:17.889Z,75.04
2023-11-04T07:07:17.917Z,74.70
2023-11-04T07:08:17.843Z,74.41
2023-11-04T07:09:17.847Z,73.35
2023-11-04T07:10:17.829Z,72.24
2023-11-04T07:11:17.813Z,72.72
2023-11-04T07:12:17.831Z,71.72
2023-11-04T07:13:17.903Z,71.20
2023-11-04T07:14:17.790Z,70.70
2023-11-04T07:15:17.758Z,70.30
2023-11-04T07:16:17.770Z,70.33
2023-11-04T07:17:17.740Z,69.57
2023-11-04T07:18:17.817Z,69.69
2023-11-04T07:19:17.850Z,69.60
2023-11-04T07:20:17.720Z,69.21
2023-11-04T07:21:17.740Z,69.11
2023-11-04T07:22:17.706Z,69.04
2023-11-04T07:23:17.702Z,68.14
2023-11-04T07:24:17.665Z,74.66
2023-11-04T07:25:17.705Z,73.38
2023-11-04T07:26:17.660Z,69.79
2023-11-04T07:27:17.645Z,67.49
2023-11-04T07:28:17.634Z,64.83
2023-11-04T07:29:17.629Z,62.46
2023-11-04T07:30:17.635Z,62.61
2023-11-04T07:31:17.626Z,62.71
2023-11-04T07:32:17.605Z,63.54
2023-11-04T07:33:17.608Z,63.56
2023-11-04T07:34:17.734Z,64.05
2023-11-04T07:35:17.573Z,63.98
2023-11-04T07:36:17.582Z,64.49
2023-11-04T07:37:17.549Z,64.59
2023-11-04T07:38:17.528Z,66.25
2023-11-04T07:39:17.526Z,66.57
2023-11-04T07:40:17.512Z,67.21
2023-11-04T07:41:17.495Z,68.46
2023-11-04T07:42:17.502Z,68.13
2023-11-04T07:43:17.472Z,67.69
2023-11-04T07:44:17.476Z,69.43
2023-11-04T07:45:17.462Z,68.51
2023-11-04T07:46:17.460Z,65.26
2023-11-04T07:47:17.511Z,63.53
2023-11-04T07:48:17.548Z,63.94
2023-11-04T07:49:17.468Z,65.75
2023-11-04T07:50:17.409Z,66.06
2023-11-04T07:51:17.403Z,65.13
2023-11-04T07:52:17.386Z,64.30
2023-11-04T07:53:17.387Z,64.82
2023-11-04T07:54:17.385Z,64.41
2023-11-04T07:55:17.387Z,62.14
2023-11-04T07:56:17.337Z,61.91
2023-11-04T07:57:17.308Z,61.40
2023-11-04T07:58:17.338Z,62.10
2023-11-04T07:59:17.324Z,61.64
2023-11-04T08:00:17.331Z,60.38
2023-11-04T08:01:17.312Z,61.04
2023-11-04T08:02:17.272Z,60.88
2023-11-04T08:03:17.347Z,63.53
2023-11-04T08:04:17.290Z,65.80
2023-11-04T08:05:17.351Z,68.74
2023-11-04T08:06:17.256Z,69.46
2023-11-04T08:07:17.229Z,69.74
2023-11-04T08:08:17.190Z,69.54
2023-11-04T08:09:17.227Z,70.15
2023-11-04T08:10:17.213Z,70.40
2023-11-04T08:11:17.190Z,69.80
2023-11-04T08:12:17.220Z,70.12
2023-11-04T08:13:17.209Z,70.54
2023-11-04T08:14:17.165Z,69.80
2023-11-04T08:15:17.250Z,68.99
2023-11-04T08:16:17.150Z,69.70
2023-11-04T08:17:17.132Z,69.50
2023-11-04T08:18:17.154Z,70.26
2023-11-04T08:19:17.241Z,68.77
2023-11-04T08:20:17.109Z,68.73
2023-11-04T08:21:17.217Z,69.90
2023-11-04T08:22:17.205Z,69.18
2023-11-04T08:23:17.076Z,68.09
2023-11-04T08:24:17.052Z,67.53
2023-11-04T08:25:17.074Z,67.02
2023-11-04T08:26:17.028Z,68.58
2023-11-04T08:27:17.015Z,70.00
2023-11-04T08:28:17.034Z,69.29
2023-11-04T08:29:17.003Z,67.55
2023-11-04T08:30:17.036Z,67.20
2023-11-04T08:31:16.975Z,67.34
2023-11-04T08:32:16.959Z,67.71
2023-11-04T08:33:17.069Z,66.48
2023-11-04T08:34:17.024Z,66.97
2023-11-04T08:35:16.932Z,65.86
2023-11-04T08:36:16.952Z,65.66
2023-11-04T08:37:16.911Z,65.40
2023-11-04T08:38:16.913Z,65.50
2023-11-04T08:39:16.881Z,65.82
2023-11-04T08:40:16.895Z,67.62
2023-11-04T08:41:16.923Z,67.81
2023-11-04T08:42:16.863Z,66.83
2023-11-04T08:43:16.843Z,67.09
2023-11-04T08:44:16.836Z,66.67
2023-11-04T08:45:16.849Z,67.04
2023-11-04T08:46:16.810Z,68.15
2023-11-04T08:47:16.865Z,68.04
2023-11-04T08:48:16.913Z,67.99
2023-11-04T08:49:16.882Z,66.97
2023-11-04T08:50:16.825Z,66.74
2023-11-04T08:51:16.771Z,67.41
2023-11-04T08:52:16.782Z,66.26
2023-11-04T08:53:16.768Z,65.32
2023-11-04T08:54:16.737Z,66.25
2023-11-04T08:55:16.719Z,65.56
2023-11-04T08:56:16.727Z,65.59
2023-11-04T08:57:16.713Z,67.86
2023-11-04T08:58:16.722Z,66.55
2023-11-04T08:59:16.858Z,68.34
2023-11-04T09:00:16.863Z,68.05
2023-11-04T09:01:16.650Z,70.03
2023-11-04T09:02:16.656Z,70.73
2023-11-04T09:03:16.641Z,71.35
2023-11-04T09:04:23.987Z,69.35
2023-11-04T09:05:19.790Z,69.19
2023-11-04T09:06:16.742Z,69.73
2023-11-04T09:07:16.629Z,69.28
2023-11-04T09:08:16.586Z,68.65
2023-11-04T09:09:16.576Z,68.13
2023-11-04T09:10:16.646Z,68.04
2023-11-04T09:11:16.558Z,68.65
2023-11-04T09:12:20.608Z,67.45
2023-11-04T09:13:16.525Z,68.26
2023-11-04T09:14:16.552Z,67.40
2023-11-04T09:15:16.546Z,69.68
2023-11-04T09:16:16.499Z,69.26
2023-11-04T09:17:16.480Z,70.79
2023-11-04T09:18:19.816Z,69.61
2023-11-04T09:19:16.587Z,69.66
2023-11-04T09:20:16.493Z,68.84
2023-11-04T09:21:16.468Z,67.87
2023-11-04T09:22:16.534Z,66.19
2023-11-04T09:23:16.420Z,64.22
2023-11-04T09:24:16.430Z,61.50
2023-11-04T09:25:16.460Z,60.77
2023-11-04T09:26:16.421Z,61.73
2023-11-04T09:27:16.404Z,62.85
2023-11-04T09:28:16.402Z,62.02
2023-11-04T09:29:16.359Z,61.32
2023-11-04T09:30:16.383Z,61.27
2023-11-04T09:31:16.356Z,60.52
2023-11-04T09:32:16.331Z,60.94
2023-11-04T09:33:16.411Z,59.72
2023-11-04T09:34:16.449Z,60.88
2023-11-04T09:35:16.313Z,62.29
2023-11-04T09:36:16.307Z,62.60
2023-11-04T09:37:16.294Z,62.67
2023-11-04T09:38:16.268Z,60.73
2023-11-04T09:39:16.248Z,59.44
2023-11-04T09:40:16.292Z,58.43
2023-11-04T09:41:16.237Z,59.43
2023-11-04T09:42:16.309Z,60.05
2023-11-04T09:43:16.249Z,59.73
2023-11-04T09:44:16.202Z,58.99
2023-11-04T09:45:16.225Z,58.48
2023-11-04T09:46:16.179Z,62.89
2023-11-04T09:47:16.189Z,59.20
2023-11-04T09:48:16.212Z,56.67
2023-11-04T09:49:16.251Z,57.44
2023-11-04T09:50:16.147Z,58.79
2023-11-04T09:51:16.144Z,60.57
2023-11-04T09:52:16.124Z,62.42
2023-11-04T09:53:16.120Z,63.49
2023-11-04T09:54:16.101Z,61.18
2023-11-04T09:55:16.093Z,60.64
2023-11-04T09:56:16.116Z,59.76
2023-11-04T09:57:16.085Z,61.59
2023-11-04T09:58:16.117Z,60.21
2023-11-04T09:59:16.055Z,61.32
2023-11-04T10:00:16.037Z,66.57
2023-11-04T10:01:16.035Z,64.87
2023-11-04T10:02:16.008Z,64.75
2023-11-04T10:03:16.055Z,63.96
2023-11-04T10:04:19.366Z,63.55
2023-11-04T10:05:16.050Z,62.42
2023-11-04T10:06:16.015Z,60.35
2023-11-04T10:07:15.966Z,55.98
2023-11-04T10:08:15.949Z,57.40
2023-11-04T10:09:15.943Z,56.05
2023-11-04T10:10:22.537Z,59.11
2023-11-04T10:11:15.951Z,60.72
2023-11-04T10:12:15.902Z,61.69
2023-11-04T10:13:15.915Z,59.17
2023-11-04T10:14:15.892Z,59.72
2023-11-04T10:15:15.926Z,59.02
2023-11-04T10:16:15.992Z,56.79
2023-11-04T10:17:15.848Z,58.79
2023-11-04T10:18:15.840Z,58.67
2023-11-04T10:19:15.880Z,56.68
2023-11-04T10:20:15.828Z,59.38
2023-11-04T10:21:15.845Z,59.12
2023-11-04T10:22:15.850Z,57.34
2023-11-04T10:23:15.780Z,52.75
2023-11-04T10:24:15.774Z,53.52
2023-11-04T10:25:15.778Z,54.25
2023-11-04T10:26:15.873Z,54.19
2023-11-04T10:27:15.781Z,55.12
2023-11-04T10:28:15.764Z,53.23
2023-11-04T10:29:15.730Z,51.14
2023-11-04T10:30:15.726Z,50.45
2023-11-04T10:31:15.717Z,50.43
2023-11-04T10:32:15.702Z,48.77
2023-11-04T10:33:15.767Z,49.53
2023-11-04T10:34:15.724Z,49.00
2023-11-04T10:35:15.670Z,48.52
2023-11-04T10:36:15.799Z,49.71
2023-11-04T10:37:16.031Z,48.75
2023-11-04T10:38:15.665Z,49.02
2023-11-04T10:39:15.658Z,48.57
2023-11-04T10:40:15.727Z,51.65
2023-11-04T10:41:15.595Z,53.39
2023-11-04T10:42:15.609Z,52.59
2023-11-04T10:43:15.591Z,51.78
2023-11-04T10:44:15.570Z,51.85
2023-11-04T10:45:15.618Z,53.03
2023-11-04T10:46:15.629Z,52.24
2023-11-04T10:47:15.537Z,53.75
2023-11-04T10:48:15.564Z,56.43
2023-11-04T10:49:15.532Z,55.44
2023-11-04T10:50:15.529Z,56.52
2023-11-04T10:51:15.558Z,56.40
2023-11-04T10:52:15.549Z,53.26
2023-11-04T10:53:15.482Z,56.68
2023-11-04T10:54:15.472Z,54.69
2023-11-04T10:55:15.511Z,52.83
2023-11-04T10:56:15.455Z,55.27
2023-11-04T10:57:15.502Z,58.11
2023-11-04T10:58:15.450Z,56.77
2023-11-04T10:59:15.431Z,55.59
2023-11-04T11:00:15.783Z,55.23
2023-11-04T11:01:15.390Z,57.39
2023-11-04T11:02:15.403Z,57.62
2023-11-04T11:03:15.416Z,56.14
2023-11-04T11:04:15.509Z,56.34
2023-11-04T11:05:15.373Z,55.19
2023-11-04T11:06:15.351Z,55.52
2023-11-04T11:07:15.372Z,57.06
2023-11-04T11:08:15.359Z,56.05
2023-11-04T11:09:15.305Z,55.80
2023-11-04T11:10:15.368Z,55.41
2023-11-04T11:11:15.560Z,53.92
2023-11-04T11:12:15.300Z,55.04
2023-11-04T11:13:15.279Z,55.86
2023-11-04T11:14:15.295Z,55.42
2023-11-04T11:15:15.271Z,56.51
2023-11-04T11:16:15.295Z,58.61
2023-11-04T11:17:15.241Z,56.18
2023-11-04T11:18:15.294Z,54.05
2023-11-04T11:19:15.308Z,52.54
2023-11-04T11:20:15.235Z,53.95
2023-11-04T11:21:15.185Z,56.45
2023-11-04T11:22:15.207Z,55.02
2023-11-04T11:23:15.175Z,54.84
2023-11-04T11:24:15.180Z,53.23
2023-11-04T11:25:15.205Z,52.99
2023-11-04T11:26:15.186Z,51.45
2023-11-04T11:27:15.116Z,51.80
2023-11-04T11:28:15.148Z,54.06
2023-11-04T11:29:15.102Z,53.24
2023-11-04T11:30:15.092Z,53.93
2023-11-04T11:31:15.334Z,53.23
2023-11-04T11:32:15.117Z,51.27
2023-11-04T11:33:15.093Z,50.68
2023-11-04T11:34:15.175Z,50.78
2023-11-04T11:35:15.035Z,50.65
2023-11-04T11:36:16.193Z,50.30
2023-11-04T11:37:15.063Z,50.88
2023-11-04T11:38:15.070Z,50.52
2023-11-04T11:39:14.982Z,50.29
2023-11-04T11:40:15.310Z,50.18
2023-11-04T11:41:15.136Z,49.40
2023-11-04T11:42:14.969Z,48.82
2023-11-04T11:43:15.046Z,46.78
2023-11-04T11:44:14.995Z,46.22
2023-11-04T11:45:14.940Z,48.70
2023-11-04T11:46:15.137Z,46.74
2023-11-04T11:47:14.908Z,44.79
2023-11-04T11:48:15.070Z,45.49
2023-11-04T11:49:14.940Z,45.88
2023-11-04T11:50:14.884Z,44.68
2023-11-04T11:51:14.867Z,44.07
2023-11-04T11:52:14.925Z,42.49
2023-11-04T11:53:14.852Z,43.08
2023-11-04T11:54:14.824Z,42.73
2023-11-04T11:55:14.920Z,42.61
2023-11-04T11:56:14.827Z,47.27
2023-11-04T11:57:14.807Z,46.02
2023-11-04T11:58:14.812Z,44.83
2023-11-04T11:59:14.782Z,43.82
2023-11-04T12:00:14.830Z,43.46
2023-11-04T12:01:14.852Z,44.28
2023-11-04T12:02:14.771Z,45.30
2023-11-04T12:03:14.758Z,44.57
2023-11-04T12:04:14.810Z,43.57
2023-11-04T12:05:14.761Z,42.82
2023-11-04T12:06:14.766Z,43.20
2023-11-04T12:07:14.790Z,45.72
2023-11-04T12:08:14.690Z,45.26
2023-11-04T12:09:14.864Z,46.53
2023-11-04T12:10:14.807Z,46.49
2023-11-04T12:11:14.829Z,46.13
2023-11-04T12:12:14.688Z,46.20
2023-11-04T12:13:15.309Z,47.61
2023-11-04T12:14:14.680Z,45.21
2023-11-04T12:15:14.854Z,44.17
2023-11-04T12:16:14.752Z,45.03
2023-11-04T12:17:14.681Z,45.86
2023-11-04T12:18:14.812Z,45.21
2023-11-04T12:19:15.298Z,45.61
2023-11-04T12:21:53.691Z,47.56
2023-11-04T12:21:58.811Z,46.89
2023-11-04T12:22:14.595Z,46.35
2023-11-04T12:23:14.637Z,46.83
2023-11-04T12:24:14.589Z,46.06
2023-11-04T12:25:14.684Z,44.74
2023-11-04T12:26:14.552Z,47.33
2023-11-04T12:27:14.540Z,46.10
2023-11-04T12:28:14.531Z,47.12
2023-11-04T12:29:14.468Z,45.22
2023-11-04T12:30:14.494Z,46.57
2023-11-04T12:31:14.580Z,49.14
2023-11-04T12:32:14.548Z,47.59
2023-11-04T12:33:14.442Z,47.01
2023-11-04T12:34:14.478Z,45.95
2023-11-04T12:35:14.393Z,47.44
2023-11-04T12:36:14.527Z,48.14
2023-11-04T12:37:14.430Z,45.23
2023-11-04T12:38:14.408Z,42.42
2023-11-04T12:39:14.484Z,43.88
2023-11-04T12:40:14.513Z,44.38
2023-11-04T12:41:14.392Z,43.92
2023-11-04T12:42:14.329Z,45.30
2023-11-04T12:43:14.437Z,43.85
2023-11-04T12:44:14.340Z,45.40
2023-11-04T12:45:14.385Z,46.15
2023-11-04T12:46:14.344Z,45.22
2023-11-04T12:47:14.291Z,46.07
2023-11-04T12:48:14.333Z,47.05
2023-11-04T12:49:14.325Z,45.92
2023-11-04T12:50:14.287Z,46.02
2023-11-04T12:51:14.947Z,46.65
2023-11-04T12:52:14.280Z,47.45